sensor_id;sensor_type;location;lat;lon;timestamp;pressure;altitude;pressure_sealevel;temperature;humidity
21449;BME280;10885;52.830;13.788;2023-05-20T05:04:33;102288.56;;;9.96;78.94
21449;BME280;10885;52.830;13.788;2023-05-20T05:09:56;102276.56;;;10.06;78.31
21449;BME280;10885;52.830;13.788;2023-05-20T05:15:17;102267.13;;;10.15;78.35
21449;BME280;10885;52.830;13.788;2023-05-20T05:20:39;102274.19;;;10.28;77.04
21449;BME280;10885;52.830;13.788;2023-05-20T05:26:00;102270.16;;;10.50;76.98
21449;BME280;10885;52.830;13.788;2023-05-20T05:31:21;102267.09;;;10.65;75.38
21449;BME280;10885;52.830;13.788;2023-05-20T05:36:43;102276.56;;;10.66;75.31
21449;BME280;10885;52.830;13.788;2023-05-20T05:42:04;102272.31;;;10.66;75.87
21449;BME280;10885;52.830;13.788;2023-05-20T05:47:27;102284.53;;;10.69;76.07
21449;BME280;10885;52.830;13.788;2023-05-20T05:52:52;102276.69;;;10.78;75.34
21449;BME280;10885;52.830;13.788;2023-05-20T05:58:13;102264.78;;;10.88;75.90
21449;BME280;10885;52.830;13.788;2023-05-20T06:03:35;102271.16;;;11.04;75.30
21449;BME280;10885;52.830;13.788;2023-05-20T06:08:56;102263.75;;;10.97;75.97
21449;BME280;10885;52.830;13.788;2023-05-20T06:14:18;102262.53;;;11.13;75.77
21449;BME280;10885;52.830;13.788;2023-05-20T06:19:39;102256.84;;;11.38;74.28
21449;BME280;10885;52.830;13.788;2023-05-20T06:25:02;102256.50;;;11.55;73.96
21449;BME280;10885;52.830;13.788;2023-05-20T06:30:25;102255.97;;;11.70;73.12
21449;BME280;10885;52.830;13.788;2023-05-20T06:35:46;102254.22;;;11.81;73.01
21449;BME280;10885;52.830;13.788;2023-05-20T06:41:08;102267.66;;;11.99;72.65
21449;BME280;10885;52.830;13.788;2023-05-20T06:46:29;102252.91;;;11.96;72.79
21449;BME280;10885;52.830;13.788;2023-05-20T06:51:59;102256.66;;;12.11;72.09
21449;BME280;10885;52.830;13.788;2023-05-20T06:57:20;102241.00;;;12.30;71.58
21449;BME280;10885;52.830;13.788;2023-05-20T07:02:42;102228.06;;;12.41;71.87
21449;BME280;10885;52.830;13.788;2023-05-20T07:08:05;102222.69;;;12.38;72.36
21449;BME280;10885;52.830;13.788;2023-05-20T07:13:28;102227.88;;;12.61;71.02
21449;BME280;10885;52.830;13.788;2023-05-20T07:18:51;102217.84;;;12.76;71.11
21449;BME280;10885;52.830;13.788;2023-05-20T07:24:12;102223.22;;;13.03;70.03
21449;BME280;10885;52.830;13.788;2023-05-20T07:29:35;102223.88;;;12.77;71.25
21449;BME280;10885;52.830;13.788;2023-05-20T07:34:56;102216.31;;;13.13;70.27
21449;BME280;10885;52.830;13.788;2023-05-20T07:40:18;102201.31;;;13.43;69.48
21449;BME280;10885;52.830;13.788;2023-05-20T07:45:39;102221.34;;;13.59;69.05
21449;BME280;10885;52.830;13.788;2023-05-20T07:51:00;102220.41;;;13.70;68.75
21449;BME280;10885;52.830;13.788;2023-05-20T07:56:22;102219.75;;;13.98;67.42
21449;BME280;10885;52.830;13.788;2023-05-20T08:01:44;102218.66;;;13.95;67.37
21449;BME280;10885;52.830;13.788;2023-05-20T08:07:07;102209.63;;;14.13;67.59
21449;BME280;10885;52.830;13.788;2023-05-20T08:12:39;102204.34;;;14.62;65.78
21449;BME280;10885;52.830;13.788;2023-05-20T08:18:01;102211.94;;;14.47;66.25
21449;BME280;10885;52.830;13.788;2023-05-20T08:23:22;102212.13;;;14.50;66.24
21449;BME280;10885;52.830;13.788;2023-05-20T08:28:43;102195.41;;;14.57;65.26
21449;BME280;10885;52.830;13.788;2023-05-20T08:34:06;102199.91;;;14.73;64.50
21449;BME280;10885;52.830;13.788;2023-05-20T08:39:28;102203.28;;;14.71;65.01
21449;BME280;10885;52.830;13.788;2023-05-20T08:44:54;102194.94;;;14.62;65.42
21449;BME280;10885;52.830;13.788;2023-05-20T08:50:17;102185.50;;;14.89;64.44
21449;BME280;10885;52.830;13.788;2023-05-20T08:55:45;102184.22;;;15.23;64.31
21449;BME280;10885;52.830;13.788;2023-05-20T09:01:07;102180.16;;;15.00;64.43
21449;BME280;10885;52.830;13.788;2023-05-20T09:06:28;102200.31;;;14.92;64.58
21449;BME280;10885;52.830;13.788;2023-05-20T09:11:50;102193.25;;;14.89;64.55
21449;BME280;10885;52.830;13.788;2023-05-20T09:17:12;102185.63;;;15.04;64.43
21449;BME280;10885;52.830;13.788;2023-05-20T09:22:33;102184.22;;;15.23;64.58
21449;BME280;10885;52.830;13.788;2023-05-20T09:27:55;102177.41;;;15.51;63.87
21449;BME280;10885;52.830;13.788;2023-05-20T09:33:17;102174.94;;;15.40;63.84
21449;BME280;10885;52.830;13.788;2023-05-20T09:38:38;102178.63;;;15.43;63.85
21449;BME280;10885;52.830;13.788;2023-05-20T09:43:59;102178.63;;;15.43;63.75
21449;BME280;10885;52.830;13.788;2023-05-20T09:49:22;102165.34;;;15.65;63.42
21449;BME280;10885;52.830;13.788;2023-05-20T09:54:44;102161.34;;;15.42;63.68
21449;BME280;10885;52.830;13.788;2023-05-20T10:00:06;102164.59;;;15.53;63.56
21449;BME280;10885;52.830;13.788;2023-05-20T10:05:37;102156.41;;;15.32;63.65
21449;BME280;10885;52.830;13.788;2023-05-20T10:11:46;102160.88;;;15.21;63.95
21449;BME280;10885;52.830;13.788;2023-05-20T10:16:53;102151.41;;;15.22;64.34
21449;BME280;10885;52.830;13.788;2023-05-20T10:22:26;102160.75;;;15.46;64.42
21449;BME280;10885;52.830;13.788;2023-05-20T10:27:50;102162.75;;;15.24;64.47
21449;BME280;10885;52.830;13.788;2023-05-20T10:33:10;102159.88;;;15.19;65.62
21449;BME280;10885;52.830;13.788;2023-05-20T10:38:36;102165.53;;;15.40;65.27
21449;BME280;10885;52.830;13.788;2023-05-20T10:44:03;102170.88;;;15.43;65.23
21449;BME280;10885;52.830;13.788;2023-05-20T10:49:32;102151.69;;;15.81;64.13
21449;BME280;10885;52.830;13.788;2023-05-20T10:54:59;102141.09;;;16.20;63.33
21449;BME280;10885;52.830;13.788;2023-05-20T11:00:20;102130.66;;;16.18;62.80
21449;BME280;10885;52.830;13.788;2023-05-20T11:05:43;102124.03;;;15.94;62.78
21449;BME280;10885;52.830;13.788;2023-05-20T11:11:06;102120.44;;;15.91;63.60
21449;BME280;10885;52.830;13.788;2023-05-20T11:16:27;102124.50;;;16.16;62.88
21449;BME280;10885;52.830;13.788;2023-05-20T11:21:48;102116.41;;;15.82;63.51
21449;BME280;10885;52.830;13.788;2023-05-20T11:27:09;102122.53;;;16.27;62.67
21449;BME280;10885;52.830;13.788;2023-05-20T11:32:30;102123.78;;;16.19;62.63
21449;BME280;10885;52.830;13.788;2023-05-20T11:43:18;102107.53;;;16.66;61.92
21449;BME280;10885;52.830;13.788;2023-05-20T11:48:39;102112.16;;;16.86;60.87
21449;BME280;10885;52.830;13.788;2023-05-20T11:54:11;102106.88;;;16.85;60.48
21449;BME280;10885;52.830;13.788;2023-05-20T11:59:32;102101.06;;;17.20;59.82
21449;BME280;10885;52.830;13.788;2023-05-20T12:04:53;102097.06;;;17.10;59.15
21449;BME280;10885;52.830;13.788;2023-05-20T12:10:14;102095.28;;;17.41;59.96
21449;BME280;10885;52.830;13.788;2023-05-20T12:15:36;102091.50;;;18.18;57.16
21449;BME280;10885;52.830;13.788;2023-05-20T12:20:58;102089.31;;;18.61;56.21
21449;BME280;10885;52.830;13.788;2023-05-20T12:26:19;102084.72;;;18.92;54.44
21449;BME280;10885;52.830;13.788;2023-05-20T12:31:41;102078.25;;;18.47;54.66
21449;BME280;10885;52.830;13.788;2023-05-20T12:37:03;102077.44;;;18.48;55.30
21449;BME280;10885;52.830;13.788;2023-05-20T12:42:24;102077.16;;;18.08;55.64
21449;BME280;10885;52.830;13.788;2023-05-20T12:47:45;102063.13;;;18.39;55.28
21449;BME280;10885;52.830;13.788;2023-05-20T12:53:07;102054.38;;;18.55;54.38
21449;BME280;10885;52.830;13.788;2023-05-20T12:58:28;102042.34;;;18.75;54.09
21449;BME280;10885;52.830;13.788;2023-05-20T13:03:49;102041.69;;;19.16;53.36
21449;BME280;10885;52.830;13.788;2023-05-20T13:09:13;102030.63;;;19.40;52.34
21449;BME280;10885;52.830;13.788;2023-05-20T13:14:33;102028.94;;;20.44;50.75
21449;BME280;10885;52.830;13.788;2023-05-20T13:19:55;102019.88;;;20.34;49.20
21449;BME280;10885;52.830;13.788;2023-05-20T13:25:16;102005.88;;;20.53;49.11
21449;BME280;10885;52.830;13.788;2023-05-20T13:30:37;102003.84;;;20.46;48.98
21449;BME280;10885;52.830;13.788;2023-05-20T13:35:58;101987.91;;;20.38;48.97
21449;BME280;10885;52.830;13.788;2023-05-20T13:41:20;101983.38;;;20.55;48.06
21449;BME280;10885;52.830;13.788;2023-05-20T13:46:41;101976.91;;;20.45;48.43
21449;BME280;10885;52.830;13.788;2023-05-20T13:52:02;101976.28;;;20.74;47.83
21449;BME280;10885;52.830;13.788;2023-05-20T13:57:23;101967.41;;;21.17;47.04
21449;BME280;10885;52.830;13.788;2023-05-20T14:02:44;101956.13;;;21.66;45.98
21449;BME280;10885;52.830;13.788;2023-05-20T14:08:06;101937.72;;;21.61;45.81
21449;BME280;10885;52.830;13.788;2023-05-20T14:13:27;101936.22;;;21.95;45.40
21449;BME280;10885;52.830;13.788;2023-05-20T14:18:48;101942.94;;;22.16;44.11
21449;BME280;10885;52.830;13.788;2023-05-20T14:24:10;101942.72;;;22.08;45.05
21449;BME280;10885;52.830;13.788;2023-05-20T14:29:31;101929.25;;;22.23;44.72
21449;BME280;10885;52.830;13.788;2023-05-20T14:34:52;101927.09;;;22.37;44.13
21449;BME280;10885;52.830;13.788;2023-05-20T14:40:13;101922.13;;;22.44;43.85
21449;BME280;10885;52.830;13.788;2023-05-20T14:45:34;101934.13;;;22.68;43.75
21449;BME280;10885;52.830;13.788;2023-05-20T14:50:55;101928.34;;;22.80;43.05
21449;BME280;10885;52.830;13.788;2023-05-20T14:56:16;101922.44;;;22.27;43.91
21449;BME280;10885;52.830;13.788;2023-05-20T15:01:37;101913.31;;;21.59;45.46
21449;BME280;10885;52.830;13.788;2023-05-20T15:06:59;101904.25;;;22.02;45.57
21449;BME280;10885;52.830;13.788;2023-05-20T15:12:20;101904.41;;;21.54;45.68
21449;BME280;10885;52.830;13.788;2023-05-20T15:17:41;101891.84;;;21.68;45.94
21449;BME280;10885;52.830;13.788;2023-05-20T15:23:02;101877.91;;;21.68;45.94
21449;BME280;10885;52.830;13.788;2023-05-20T15:28:23;101881.16;;;21.60;46.23
21449;BME280;10885;52.830;13.788;2023-05-20T15:33:45;101881.78;;;21.53;47.12
21449;BME280;10885;52.830;13.788;2023-05-20T15:39:06;101877.50;;;21.30;47.25
21449;BME280;10885;52.830;13.788;2023-05-20T15:44:27;101868.06;;;21.33;47.38
21449;BME280;10885;52.830;13.788;2023-05-20T15:49:49;101862.00;;;21.34;47.68
21449;BME280;10885;52.830;13.788;2023-05-20T15:55:11;101858.78;;;21.16;48.17
21449;BME280;10885;52.830;13.788;2023-05-20T16:00:32;101848.94;;;21.34;47.84
21449;BME280;10885;52.830;13.788;2023-05-20T16:05:54;101849.13;;;21.13;48.00
21449;BME280;10885;52.830;13.788;2023-05-20T16:11:15;101841.78;;;21.01;48.82
21449;BME280;10885;52.830;13.788;2023-05-20T16:16:37;101832.22;;;21.28;48.34
21449;BME280;10885;52.830;13.788;2023-05-20T16:21:58;101821.13;;;21.59;48.08
21449;BME280;10885;52.830;13.788;2023-05-20T16:27:19;101815.91;;;21.59;47.85
21449;BME280;10885;52.830;13.788;2023-05-20T16:32:40;101812.53;;;21.63;47.62
21449;BME280;10885;52.830;13.788;2023-05-20T16:38:02;101811.31;;;21.80;47.21
21449;BME280;10885;52.830;13.788;2023-05-20T16:43:23;101816.09;;;22.22;46.80
21449;BME280;10885;52.830;13.788;2023-05-20T16:48:45;101805.69;;;21.95;46.97
21449;BME280;10885;52.830;13.788;2023-05-20T16:54:05;101796.47;;;22.07;46.68
21449;BME280;10885;52.830;13.788;2023-05-20T16:59:28;101793.44;;;21.64;47.86
21449;BME280;10885;52.830;13.788;2023-05-20T17:04:50;101778.88;;;21.71;47.89
21449;BME280;10885;52.830;13.788;2023-05-20T17:10:11;101781.38;;;21.68;47.90
21449;BME280;10885;52.830;13.788;2023-05-20T17:15:32;101781.53;;;21.45;47.86
21449;BME280;10885;52.830;13.788;2023-05-20T17:20:56;101781.81;;;21.27;48.67
21449;BME280;10885;52.830;13.788;2023-05-20T17:26:18;101777.88;;;20.87;49.78
21449;BME280;10885;52.830;13.788;2023-05-20T17:31:39;101770.88;;;20.86;50.28
21449;BME280;10885;52.830;13.788;2023-05-20T17:37:01;101771.47;;;20.79;50.69
21449;BME280;10885;52.830;13.788;2023-05-20T17:42:22;101764.91;;;20.64;51.05
21449;BME280;10885;52.830;13.788;2023-05-20T17:47:43;101763.03;;;20.60;50.82
21449;BME280;10885;52.830;13.788;2023-05-20T17:53:04;101749.28;;;20.16;51.75
21449;BME280;10885;52.830;13.788;2023-05-20T17:58:25;101742.41;;;20.18;52.16
21449;BME280;10885;52.830;13.788;2023-05-20T18:03:47;101743.41;;;19.98;52.45
21449;BME280;10885;52.830;13.788;2023-05-20T18:09:08;101744.16;;;19.95;52.44
21449;BME280;10885;52.830;13.788;2023-05-20T18:14:29;101738.50;;;19.83;52.64
21449;BME280;10885;52.830;13.788;2023-05-20T18:19:51;101728.38;;;19.68;53.40
21449;BME280;10885;52.830;13.788;2023-05-20T18:25:13;101737.31;;;19.52;54.00
21449;BME280;10885;52.830;13.788;2023-05-20T18:30:34;101743.22;;;19.27;54.53
21449;BME280;10885;52.830;13.788;2023-05-20T18:35:56;101746.06;;;19.33;54.35
21449;BME280;10885;52.830;13.788;2023-05-20T18:41:17;101745.44;;;19.18;55.03
21449;BME280;10885;52.830;13.788;2023-05-20T18:46:38;101756.13;;;19.03;55.70
21449;BME280;10885;52.830;13.788;2023-05-20T18:51:59;101758.00;;;18.86;56.31
21449;BME280;10885;52.830;13.788;2023-05-20T18:57:20;101756.41;;;18.70;56.56
21449;BME280;10885;52.830;13.788;2023-05-20T19:02:42;101760.47;;;18.63;57.20
21449;BME280;10885;52.830;13.788;2023-05-20T19:08:04;101762.41;;;18.48;57.76
21449;BME280;10885;52.830;13.788;2023-05-20T19:13:25;101766.97;;;18.34;58.31
21449;BME280;10885;52.830;13.788;2023-05-20T19:18:46;101776.13;;;18.06;59.35
21449;BME280;10885;52.830;13.788;2023-05-20T19:24:09;101776.31;;;17.92;60.17
21449;BME280;10885;52.830;13.788;2023-05-20T19:29:30;101772.75;;;17.72;61.13
21449;BME280;10885;52.830;13.788;2023-05-20T19:34:51;101782.25;;;17.53;61.96
21449;BME280;10885;52.830;13.788;2023-05-20T19:40:12;101787.66;;;17.58;61.84
21449;BME280;10885;52.830;13.788;2023-05-20T19:45:33;101785.34;;;17.46;62.47
21449;BME280;10885;52.830;13.788;2023-05-20T19:50:56;101777.06;;;17.35;62.58
21449;BME280;10885;52.830;13.788;2023-05-20T19:56:17;101777.44;;;17.25;63.20
21449;BME280;10885;52.830;13.788;2023-05-20T20:01:40;101779.75;;;17.02;63.97
21449;BME280;10885;52.830;13.788;2023-05-20T20:07:03;101774.56;;;17.02;64.05
21449;BME280;10885;52.830;13.788;2023-05-20T20:12:24;101783.19;;;17.01;64.21
21449;BME280;10885;52.830;13.788;2023-05-20T20:17:46;101785.97;;;17.06;63.94
21449;BME280;10885;52.830;13.788;2023-05-20T20:23:11;101787.00;;;16.92;64.64
21449;BME280;10885;52.830;13.788;2023-05-20T20:28:33;101777.03;;;16.83;64.68
21449;BME280;10885;52.830;13.788;2023-05-20T20:33:53;101791.03;;;16.70;65.12
21449;BME280;10885;52.830;13.788;2023-05-20T20:39:15;101783.03;;;16.49;66.86
21449;BME280;10885;52.830;13.788;2023-05-20T20:44:38;101787.56;;;16.37;66.40
21449;BME280;10885;52.830;13.788;2023-05-20T20:50:02;101785.88;;;16.21;67.61
21449;BME280;10885;52.830;13.788;2023-05-20T20:55:24;101779.06;;;16.06;68.74
21449;BME280;10885;52.830;13.788;2023-05-20T21:00:45;101783.50;;;16.09;69.28
21449;BME280;10885;52.830;13.788;2023-05-20T21:06:08;101780.81;;;16.07;69.65
21449;BME280;10885;52.830;13.788;2023-05-20T21:11:29;101782.44;;;16.05;69.63
21449;BME280;10885;52.830;13.788;2023-05-20T21:16:50;101763.97;;;16.14;68.97
21449;BME280;10885;52.830;13.788;2023-05-20T21:22:12;101760.88;;;16.21;69.02
